sensor_id;sensor_type;location;lat;lon;timestamp;temperature;humidity
7666;DHT22;3875;46.562;4.898;2023-07-28T00:02:09;23.60;73.70
7666;DHT22;3875;46.562;4.898;2023-07-28T00:04:35;23.60;73.80
7666;DHT22;3875;46.562;4.898;2023-07-28T00:07:02;23.60;73.70
7666;DHT22;3875;46.562;4.898;2023-07-28T00:09:27;23.50;74.10
7666;DHT22;3875;46.562;4.898;2023-07-28T00:11:53;23.40;74.30
7666;DHT22;3875;46.562;4.898;2023-07-28T00:14:19;23.50;74.10
7666;DHT22;3875;46.562;4.898;2023-07-28T00:16:44;23.60;73.80
7666;DHT22;3875;46.562;4.898;2023-07-28T00:19:10;23.60;73.40
7666;DHT22;3875;46.562;4.898;2023-07-28T00:21:36;23.60;73.40
7666;DHT22;3875;46.562;4.898;2023-07-28T00:24:02;23.60;73.40
7666;DHT22;3875;46.562;4.898;2023-07-28T00:26:27;23.70;73.10
7666;DHT22;3875;46.562;4.898;2023-07-28T00:28:53;23.70;73.00
7666;DHT22;3875;46.562;4.898;2023-07-28T00:31:18;23.80;72.80
7666;DHT22;3875;46.562;4.898;2023-07-28T00:33:44;23.80;72.80
7666;DHT22;3875;46.562;4.898;2023-07-28T00:36:10;23.80;72.70
7666;DHT22;3875;46.562;4.898;2023-07-28T00:38:35;23.80;72.50
7666;DHT22;3875;46.562;4.898;2023-07-28T00:41:01;23.80;72.30
7666;DHT22;3875;46.562;4.898;2023-07-28T00:43:27;23.90;72.30
7666;DHT22;3875;46.562;4.898;2023-07-28T00:45:53;23.90;72.20
7666;DHT22;3875;46.562;4.898;2023-07-28T00:48:19;24.00;72.20
7666;DHT22;3875;46.562;4.898;2023-07-28T00:50:48;24.00;72.10
7666;DHT22;3875;46.562;4.898;2023-07-28T00:53:14;23.90;72.10
7666;DHT22;3875;46.562;4.898;2023-07-28T00:55:41;23.90;72.10
7666;DHT22;3875;46.562;4.898;2023-07-28T00:58:10;23.90;72.10
7666;DHT22;3875;46.562;4.898;2023-07-28T01:00:36;23.80;72.40
7666;DHT22;3875;46.562;4.898;2023-07-28T01:03:02;23.70;72.70
7666;DHT22;3875;46.562;4.898;2023-07-28T01:05:54;23.70;72.80
7666;DHT22;3875;46.562;4.898;2023-07-28T01:08:49;23.60;73.20
7666;DHT22;3875;46.562;4.898;2023-07-28T01:11:16;23.50;73.80
7666;DHT22;3875;46.562;4.898;2023-07-28T01:13:42;23.50;74.10
7666;DHT22;3875;46.562;4.898;2023-07-28T01:16:08;23.40;74.40
7666;DHT22;3875;46.562;4.898;2023-07-28T01:18:34;23.40;74.40
7666;DHT22;3875;46.562;4.898;2023-07-28T01:21:03;23.30;74.80
7666;DHT22;3875;46.562;4.898;2023-07-28T01:26:34;23.10;75.10
7666;DHT22;3875;46.562;4.898;2023-07-28T01:29:00;23.00;75.00
7666;DHT22;3875;46.562;4.898;2023-07-28T01:31:27;23.00;75.00
7666;DHT22;3875;46.562;4.898;2023-07-28T01:33:53;23.00;75.00
7666;DHT22;3875;46.562;4.898;2023-07-28T01:36:18;22.90;75.00
7666;DHT22;3875;46.562;4.898;2023-07-28T01:38:44;23.00;74.70
7666;DHT22;3875;46.562;4.898;2023-07-28T01:41:10;23.10;74.70
7666;DHT22;3875;46.562;4.898;2023-07-28T01:43:35;23.10;74.60
7666;DHT22;3875;46.562;4.898;2023-07-28T01:46:01;23.10;74.40
7666;DHT22;3875;46.562;4.898;2023-07-28T01:48:27;23.10;74.40
7666;DHT22;3875;46.562;4.898;2023-07-28T01:50:52;23.00;74.60
7666;DHT22;3875;46.562;4.898;2023-07-28T01:53:18;23.00;74.50
7666;DHT22;3875;46.562;4.898;2023-07-28T01:55:43;22.90;74.60
7666;DHT22;3875;46.562;4.898;2023-07-28T01:58:09;22.90;74.60
7666;DHT22;3875;46.562;4.898;2023-07-28T02:00:35;22.90;74.60
7666;DHT22;3875;46.562;4.898;2023-07-28T02:03:01;22.90;74.50
7666;DHT22;3875;46.562;4.898;2023-07-28T02:05:28;22.80;75.00
7666;DHT22;3875;46.562;4.898;2023-07-28T02:07:55;22.70;75.30
7666;DHT22;3875;46.562;4.898;2023-07-28T02:10:22;22.70;75.40
7666;DHT22;3875;46.562;4.898;2023-07-28T02:12:49;22.60;75.90
7666;DHT22;3875;46.562;4.898;2023-07-28T02:15:16;22.50;76.20
7666;DHT22;3875;46.562;4.898;2023-07-28T02:17:42;22.30;76.60
7666;DHT22;3875;46.562;4.898;2023-07-28T02:20:08;22.40;76.60
7666;DHT22;3875;46.562;4.898;2023-07-28T02:22:41;22.40;76.60
7666;DHT22;3875;46.562;4.898;2023-07-28T02:25:07;22.40;76.40
7666;DHT22;3875;46.562;4.898;2023-07-28T02:27:33;22.50;76.10
7666;DHT22;3875;46.562;4.898;2023-07-28T02:29:59;22.50;76.00
7666;DHT22;3875;46.562;4.898;2023-07-28T02:32:25;22.60;75.90
7666;DHT22;3875;46.562;4.898;2023-07-28T02:34:51;22.60;75.80
7666;DHT22;3875;46.562;4.898;2023-07-28T02:37:16;22.60;76.00
7666;DHT22;3875;46.562;4.898;2023-07-28T02:39:42;22.50;76.20
7666;DHT22;3875;46.562;4.898;2023-07-28T02:42:08;22.50;76.30
7666;DHT22;3875;46.562;4.898;2023-07-28T02:44:33;22.50;76.20
7666;DHT22;3875;46.562;4.898;2023-07-28T02:46:59;22.50;76.10
7666;DHT22;3875;46.562;4.898;2023-07-28T02:49:25;22.50;76.40
7666;DHT22;3875;46.562;4.898;2023-07-28T02:51:50;22.50;76.50
7666;DHT22;3875;46.562;4.898;2023-07-28T02:54:16;22.40;76.80
7666;DHT22;3875;46.562;4.898;2023-07-28T02:56:41;22.30;76.90
7666;DHT22;3875;46.562;4.898;2023-07-28T02:59:07;22.30;76.80
7666;DHT22;3875;46.562;4.898;2023-07-28T03:01:33;22.30;76.90
7666;DHT22;3875;46.562;4.898;2023-07-28T03:04:02;22.30;76.90
7666;DHT22;3875;46.562;4.898;2023-07-28T03:06:28;22.30;77.00
7666;DHT22;3875;46.562;4.898;2023-07-28T03:08:54;22.30;76.90
7666;DHT22;3875;46.562;4.898;2023-07-28T03:11:19;22.20;77.00
7666;DHT22;3875;46.562;4.898;2023-07-28T03:13:45;22.20;77.00
7666;DHT22;3875;46.562;4.898;2023-07-28T03:16:11;22.20;77.10
7666;DHT22;3875;46.562;4.898;2023-07-28T03:18:37;22.10;77.30
7666;DHT22;3875;46.562;4.898;2023-07-28T03:21:02;22.10;77.10
7666;DHT22;3875;46.562;4.898;2023-07-28T03:23:28;22.10;77.40
7666;DHT22;3875;46.562;4.898;2023-07-28T03:25:54;22.10;77.20
7666;DHT22;3875;46.562;4.898;2023-07-28T03:28:20;22.10;77.00
7666;DHT22;3875;46.562;4.898;2023-07-28T03:30:46;22.10;77.00
7666;DHT22;3875;46.562;4.898;2023-07-28T03:33:11;22.10;76.80
7666;DHT22;3875;46.562;4.898;2023-07-28T03:35:37;22.10;76.80
7666;DHT22;3875;46.562;4.898;2023-07-28T03:38:03;22.10;76.90
7666;DHT22;3875;46.562;4.898;2023-07-28T03:40:28;22.10;77.00
7666;DHT22;3875;46.562;4.898;2023-07-28T03:42:54;22.10;76.80
7666;DHT22;3875;46.562;4.898;2023-07-28T03:45:20;22.00;76.90
7666;DHT22;3875;46.562;4.898;2023-07-28T03:47:46;21.90;77.30
7666;DHT22;3875;46.562;4.898;2023-07-28T03:52:39;21.80;77.70
7666;DHT22;3875;46.562;4.898;2023-07-28T03:55:05;21.80;77.60
7666;DHT22;3875;46.562;4.898;2023-07-28T03:57:31;21.80;77.40
7666;DHT22;3875;46.562;4.898;2023-07-28T03:59:56;21.80;77.40
7666;DHT22;3875;46.562;4.898;2023-07-28T04:02:22;21.80;77.40
7666;DHT22;3875;46.562;4.898;2023-07-28T04:04:53;21.80;77.10
7666;DHT22;3875;46.562;4.898;2023-07-28T04:07:19;21.80;77.10
7666;DHT22;3875;46.562;4.898;2023-07-28T04:09:45;21.80;77.10
7666;DHT22;3875;46.562;4.898;2023-07-28T04:12:11;21.80;77.10
7666;DHT22;3875;46.562;4.898;2023-07-28T04:14:36;21.80;77.00
7666;DHT22;3875;46.562;4.898;2023-07-28T04:17:02;21.80;77.00
7666;DHT22;3875;46.562;4.898;2023-07-28T04:19:28;21.70;77.40
7666;DHT22;3875;46.562;4.898;2023-07-28T04:21:56;21.60;77.40
7666;DHT22;3875;46.562;4.898;2023-07-28T04:24:22;21.40;78.10
7666;DHT22;3875;46.562;4.898;2023-07-28T04:26:47;21.30;78.50
7666;DHT22;3875;46.562;4.898;2023-07-28T04:29:14;21.30;78.70
7666;DHT22;3875;46.562;4.898;2023-07-28T04:31:40;21.20;79.00
7666;DHT22;3875;46.562;4.898;2023-07-28T04:34:05;21.10;79.30
7666;DHT22;3875;46.562;4.898;2023-07-28T04:36:31;21.00;79.70
7666;DHT22;3875;46.562;4.898;2023-07-28T04:38:57;20.90;80.30
7666;DHT22;3875;46.562;4.898;2023-07-28T04:41:22;20.80;80.80
7666;DHT22;3875;46.562;4.898;2023-07-28T04:43:48;20.70;81.00
7666;DHT22;3875;46.562;4.898;2023-07-28T04:46:14;20.70;81.10
7666;DHT22;3875;46.562;4.898;2023-07-28T04:48:39;20.80;81.20
7666;DHT22;3875;46.562;4.898;2023-07-28T04:51:05;20.80;81.10
7666;DHT22;3875;46.562;4.898;2023-07-28T04:53:31;20.90;81.00
7666;DHT22;3875;46.562;4.898;2023-07-28T04:55:56;21.00;80.80
7666;DHT22;3875;46.562;4.898;2023-07-28T04:58:22;21.20;80.40
7666;DHT22;3875;46.562;4.898;2023-07-28T05:00:48;21.30;80.00
7666;DHT22;3875;46.562;4.898;2023-07-28T05:03:16;21.70;79.00
7666;DHT22;3875;46.562;4.898;2023-07-28T05:05:44;21.70;79.00
7666;DHT22;3875;46.562;4.898;2023-07-28T05:08:11;21.80;78.60
7666;DHT22;3875;46.562;4.898;2023-07-28T05:10:36;21.80;78.50
7666;DHT22;3875;46.562;4.898;2023-07-28T05:13:02;21.90;78.30
7666;DHT22;3875;46.562;4.898;2023-07-28T05:15:30;21.90;78.30
7666;DHT22;3875;46.562;4.898;2023-07-28T05:17:56;22.00;78.20
7666;DHT22;3875;46.562;4.898;2023-07-28T05:20:22;22.00;78.20
7666;DHT22;3875;46.562;4.898;2023-07-28T05:22:47;22.10;78.10
7666;DHT22;3875;46.562;4.898;2023-07-28T05:25:13;22.10;78.30
7666;DHT22;3875;46.562;4.898;2023-07-28T05:27:39;22.10;78.50
7666;DHT22;3875;46.562;4.898;2023-07-28T05:30:05;22.10;78.70
7666;DHT22;3875;46.562;4.898;2023-07-28T05:32:31;22.20;78.30
7666;DHT22;3875;46.562;4.898;2023-07-28T05:34:57;22.20;78.50
7666;DHT22;3875;46.562;4.898;2023-07-28T05:37:23;22.30;78.40
7666;DHT22;3875;46.562;4.898;2023-07-28T05:39:49;22.30;78.60
7666;DHT22;3875;46.562;4.898;2023-07-28T05:42:15;22.20;78.90
7666;DHT22;3875;46.562;4.898;2023-07-28T05:44:41;22.10;79.30
7666;DHT22;3875;46.562;4.898;2023-07-28T05:47:06;22.20;78.90
7666;DHT22;3875;46.562;4.898;2023-07-28T05:49:32;22.20;79.00
7666;DHT22;3875;46.562;4.898;2023-07-28T05:51:58;22.20;79.10
7666;DHT22;3875;46.562;4.898;2023-07-28T05:54:23;22.10;79.30
7666;DHT22;3875;46.562;4.898;2023-07-28T05:56:49;22.10;79.50
7666;DHT22;3875;46.562;4.898;2023-07-28T05:59:15;22.20;79.20
7666;DHT22;3875;46.562;4.898;2023-07-28T06:01:43;22.30;79.10
7666;DHT22;3875;46.562;4.898;2023-07-28T06:04:08;22.30;79.10
7666;DHT22;3875;46.562;4.898;2023-07-28T06:06:34;22.30;79.00
7666;DHT22;3875;46.562;4.898;2023-07-28T06:08:59;22.30;78.90
7666;DHT22;3875;46.562;4.898;2023-07-28T06:11:25;22.30;78.80
7666;DHT22;3875;46.562;4.898;2023-07-28T06:13:52;22.40;78.60
7666;DHT22;3875;46.562;4.898;2023-07-28T06:16:17;22.40;78.70
7666;DHT22;3875;46.562;4.898;2023-07-28T06:18:43;22.50;78.40
7666;DHT22;3875;46.562;4.898;2023-07-28T06:21:08;22.50;78.50
7666;DHT22;3875;46.562;4.898;2023-07-28T06:23:34;22.60;78.10
7666;DHT22;3875;46.562;4.898;2023-07-28T06:26:00;22.70;77.80
7666;DHT22;3875;46.562;4.898;2023-07-28T06:28:26;22.90;77.90
7666;DHT22;3875;46.562;4.898;2023-07-28T06:30:56;23.10;77.50
7666;DHT22;3875;46.562;4.898;2023-07-28T06:33:22;23.20;77.30
7666;DHT22;3875;46.562;4.898;2023-07-28T06:35:47;23.20;77.20
7666;DHT22;3875;46.562;4.898;2023-07-28T06:38:13;23.30;77.40
7666;DHT22;3875;46.562;4.898;2023-07-28T06:40:39;23.60;77.70
7666;DHT22;3875;46.562;4.898;2023-07-28T06:43:04;23.90;77.50
7666;DHT22;3875;46.562;4.898;2023-07-28T06:45:31;24.20;76.90
7666;DHT22;3875;46.562;4.898;2023-07-28T06:47:57;24.30;76.50
7666;DHT22;3875;46.562;4.898;2023-07-28T06:50:23;24.40;76.50
7666;DHT22;3875;46.562;4.898;2023-07-28T06:52:48;24.60;76.50
7666;DHT22;3875;46.562;4.898;2023-07-28T06:55:18;24.70;76.10
7666;DHT22;3875;46.562;4.898;2023-07-28T06:57:46;24.80;75.70
7666;DHT22;3875;46.562;4.898;2023-07-28T07:00:12;24.80;75.80
7666;DHT22;3875;46.562;4.898;2023-07-28T07:02:38;25.00;75.80
7666;DHT22;3875;46.562;4.898;2023-07-28T07:05:04;25.20;75.10
7666;DHT22;3875;46.562;4.898;2023-07-28T07:07:31;25.40;74.80
7666;DHT22;3875;46.562;4.898;2023-07-28T07:09:57;25.60;74.10
7666;DHT22;3875;46.562;4.898;2023-07-28T07:12:23;25.60;73.80
7666;DHT22;3875;46.562;4.898;2023-07-28T07:14:48;25.80;73.90
7666;DHT22;3875;46.562;4.898;2023-07-28T07:17:15;26.00;73.70
7666;DHT22;3875;46.562;4.898;2023-07-28T07:19:40;26.20;73.20
7666;DHT22;3875;46.562;4.898;2023-07-28T07:22:06;26.40;72.60
7666;DHT22;3875;46.562;4.898;2023-07-28T07:24:32;26.60;72.30
7666;DHT22;3875;46.562;4.898;2023-07-28T07:26:58;26.80;72.10
7666;DHT22;3875;46.562;4.898;2023-07-28T07:29:24;27.00;71.60
7666;DHT22;3875;46.562;4.898;2023-07-28T07:31:49;27.10;71.30
7666;DHT22;3875;46.562;4.898;2023-07-28T07:34:20;27.20;70.50
7666;DHT22;3875;46.562;4.898;2023-07-28T07:36:46;27.40;70.10
7666;DHT22;3875;46.562;4.898;2023-07-28T07:39:12;27.70;69.90
7666;DHT22;3875;46.562;4.898;2023-07-28T07:41:37;27.80;69.70
7666;DHT22;3875;46.562;4.898;2023-07-28T07:44:03;27.90;69.50
7666;DHT22;3875;46.562;4.898;2023-07-28T07:46:29;28.30;69.10
7666;DHT22;3875;46.562;4.898;2023-07-28T07:48:55;28.70;68.20
7666;DHT22;3875;46.562;4.898;2023-07-28T07:51:20;28.50;67.70
7666;DHT22;3875;46.562;4.898;2023-07-28T07:53:46;28.20;68.40
7666;DHT22;3875;46.562;4.898;2023-07-28T07:56:11;27.90;68.90
7666;DHT22;3875;46.562;4.898;2023-07-28T07:58:38;27.90;68.60
7666;DHT22;3875;46.562;4.898;2023-07-28T08:01:03;27.60;69.40
7666;DHT22;3875;46.562;4.898;2023-07-28T08:03:29;27.30;70.10
7666;DHT22;3875;46.562;4.898;2023-07-28T08:05:57;27.30;69.90
7666;DHT22;3875;46.562;4.898;2023-07-28T08:08:23;27.20;69.90
7666;DHT22;3875;46.562;4.898;2023-07-28T08:10:50;27.10;70.00
7666;DHT22;3875;46.562;4.898;2023-07-28T08:13:16;26.90;70.50
7666;DHT22;3875;46.562;4.898;2023-07-28T08:15:45;26.90;70.90
7666;DHT22;3875;46.562;4.898;2023-07-28T08:18:12;27.00;71.00
7666;DHT22;3875;46.562;4.898;2023-07-28T08:20:38;27.10;71.00
7666;DHT22;3875;46.562;4.898;2023-07-28T08:23:04;27.10;70.10
7666;DHT22;3875;46.562;4.898;2023-07-28T08:25:29;27.20;70.10
7666;DHT22;3875;46.562;4.898;2023-07-28T08:27:55;27.30;70.20
7666;DHT22;3875;46.562;4.898;2023-07-28T08:30:21;27.40;69.50
7666;DHT22;3875;46.562;4.898;2023-07-28T08:32:46;27.40;69.00
7666;DHT22;3875;46.562;4.898;2023-07-28T08:35:12;27.50;69.40
7666;DHT22;3875;46.562;4.898;2023-07-28T08:37:38;27.90;69.10
7666;DHT22;3875;46.562;4.898;2023-07-28T08:40:04;28.10;67.50
7666;DHT22;3875;46.562;4.898;2023-07-28T08:42:34;28.50;68.00
7666;DHT22;3875;46.562;4.898;2023-07-28T08:45:02;28.70;67.40
7666;DHT22;3875;46.562;4.898;2023-07-28T08:47:30;28.80;66.50
7666;DHT22;3875;46.562;4.898;2023-07-28T08:49:55;29.00;66.50
7666;DHT22;3875;46.562;4.898;2023-07-28T08:52:22;29.00;66.60
7666;DHT22;3875;46.562;4.898;2023-07-28T08:54:49;29.10;66.10
7666;DHT22;3875;46.562;4.898;2023-07-28T08:57:15;28.90;66.30
7666;DHT22;3875;46.562;4.898;2023-07-28T08:59:41;28.50;66.80
7666;DHT22;3875;46.562;4.898;2023-07-28T09:02:18;28.20;67.20
7666;DHT22;3875;46.562;4.898;2023-07-28T09:04:45;28.20;67.70
7666;DHT22;3875;46.562;4.898;2023-07-28T09:07:11;28.50;67.30
7666;DHT22;3875;46.562;4.898;2023-07-28T09:09:38;28.50;67.10
7666;DHT22;3875;46.562;4.898;2023-07-28T09:12:04;28.40;67.10
7666;DHT22;3875;46.562;4.898;2023-07-28T09:14:30;28.70;66.90
7666;DHT22;3875;46.562;4.898;2023-07-28T09:16:56;29.20;65.60
7666;DHT22;3875;46.562;4.898;2023-07-28T09:19:30;29.50;64.50
7666;DHT22;3875;46.562;4.898;2023-07-28T09:22:01;29.00;65.20
7666;DHT22;3875;46.562;4.898;2023-07-28T09:24:31;28.60;66.20
7666;DHT22;3875;46.562;4.898;2023-07-28T09:26:58;28.40;66.60
7666;DHT22;3875;46.562;4.898;2023-07-28T09:29:24;28.30;66.70
7666;DHT22;3875;46.562;4.898;2023-07-28T09:31:53;28.70;66.90
7666;DHT22;3875;46.562;4.898;2023-07-28T09:34:27;28.70;66.60
7666;DHT22;3875;46.562;4.898;2023-07-28T09:36:54;28.60;65.80
7666;DHT22;3875;46.562;4.898;2023-07-28T09:39:20;28.90;66.80
7666;DHT22;3875;46.562;4.898;2023-07-28T09:41:46;29.70;66.00
7666;DHT22;3875;46.562;4.898;2023-07-28T09:44:12;30.00;62.90
7666;DHT22;3875;46.562;4.898;2023-07-28T09:46:55;30.20;63.20
7666;DHT22;3875;46.562;4.898;2023-07-28T09:49:28;30.60;62.70
7666;DHT22;3875;46.562;4.898;2023-07-28T09:51:59;29.60;63.10
7666;DHT22;3875;46.562;4.898;2023-07-28T09:54:28;29.00;64.80
7666;DHT22;3875;46.562;4.898;2023-07-28T09:56:58;29.00;65.50
7666;DHT22;3875;46.562;4.898;2023-07-28T09:59:39;28.60;65.50
7666;DHT22;3875;46.562;4.898;2023-07-28T10:02:05;28.90;66.80
7666;DHT22;3875;46.562;4.898;2023-07-28T10:04:32;29.60;65.80
7666;DHT22;3875;46.562;4.898;2023-07-28T10:06:57;29.90;64.70
7666;DHT22;3875;46.562;4.898;2023-07-28T10:09:27;30.40;64.10
7666;DHT22;3875;46.562;4.898;2023-07-28T10:11:54;30.30;63.30
7666;DHT22;3875;46.562;4.898;2023-07-28T10:14:35;30.40;62.80
7666;DHT22;3875;46.562;4.898;2023-07-28T10:17:04;30.20;63.30
7666;DHT22;3875;46.562;4.898;2023-07-28T10:19:35;30.00;63.30
7666;DHT22;3875;46.562;4.898;2023-07-28T10:22:09;30.10;62.90
7666;DHT22;3875;46.562;4.898;2023-07-28T10:25:00;30.40;63.10
7666;DHT22;3875;46.562;4.898;2023-07-28T10:27:37;30.80;62.00
7666;DHT22;3875;46.562;4.898;2023-07-28T10:30:11;31.20;61.30
7666;DHT22;3875;46.562;4.898;2023-07-28T10:32:40;31.60;60.90
7666;DHT22;3875;46.562;4.898;2023-07-28T10:35:27;31.80;59.90
7666;DHT22;3875;46.562;4.898;2023-07-28T10:37:55;31.80;59.40
7666;DHT22;3875;46.562;4.898;2023-07-28T10:40:31;31.40;59.90
7666;DHT22;3875;46.562;4.898;2023-07-28T10:42:57;31.60;60.00
7666;DHT22;3875;46.562;4.898;2023-07-28T10:45:25;31.70;60.70
7666;DHT22;3875;46.562;4.898;2023-07-28T10:47:53;32.10;59.70
7666;DHT22;3875;46.562;4.898;2023-07-28T10:50:21;32.40;59.40
7666;DHT22;3875;46.562;4.898;2023-07-28T10:52:47;32.70;57.90
7666;DHT22;3875;46.562;4.898;2023-07-28T10:55:16;33.00;57.40
7666;DHT22;3875;46.562;4.898;2023-07-28T10:57:46;33.10;57.40
7666;DHT22;3875;46.562;4.898;2023-07-28T11:00:14;33.20;56.90
7666;DHT22;3875;46.562;4.898;2023-07-28T11:02:43;33.50;54.30
7666;DHT22;3875;46.562;4.898;2023-07-28T11:05:18;32.90;54.90
7666;DHT22;3875;46.562;4.898;2023-07-28T11:07:44;32.40;55.10
7666;DHT22;3875;46.562;4.898;2023-07-28T11:10:11;31.70;55.30
7666;DHT22;3875;46.562;4.898;2023-07-28T11:12:41;31.30;56.40
7666;DHT22;3875;46.562;4.898;2023-07-28T11:15:12;30.90;57.40
7666;DHT22;3875;46.562;4.898;2023-07-28T11:17:39;30.50;58.20
7666;DHT22;3875;46.562;4.898;2023-07-28T11:20:26;30.60;58.10
7666;DHT22;3875;46.562;4.898;2023-07-28T11:22:58;30.30;57.80
7666;DHT22;3875;46.562;4.898;2023-07-28T11:25:25;30.40;58.40
7666;DHT22;3875;46.562;4.898;2023-07-28T11:27:52;30.80;58.00
7666;DHT22;3875;46.562;4.898;2023-07-28T11:30:19;31.40;57.90
7666;DHT22;3875;46.562;4.898;2023-07-28T11:32:47;32.00;57.00
7666;DHT22;3875;46.562;4.898;2023-07-28T11:35:15;31.90;56.70
7666;DHT22;3875;46.562;4.898;2023-07-28T11:37:43;32.60;57.00
7666;DHT22;3875;46.562;4.898;2023-07-28T11:40:10;32.80;55.80
7666;DHT22;3875;46.562;4.898;2023-07-28T11:43:00;32.60;56.00
7666;DHT22;3875;46.562;4.898;2023-07-28T11:45:26;33.00;56.80
7666;DHT22;3875;46.562;4.898;2023-07-28T11:47:59;32.90;55.80
7666;DHT22;3875;46.562;4.898;2023-07-28T11:50:39;33.20;55.70
7666;DHT22;3875;46.562;4.898;2023-07-28T11:53:05;33.50;55.00
7666;DHT22;3875;46.562;4.898;2023-07-28T11:55:38;33.80;54.10
7666;DHT22;3875;46.562;4.898;2023-07-28T11:58:07;34.00;54.10
7666;DHT22;3875;46.562;4.898;2023-07-28T12:00:37;34.20;53.50
7666;DHT22;3875;46.562;4.898;2023-07-28T12:03:08;34.20;53.10
7666;DHT22;3875;46.562;4.898;2023-07-28T12:05:36;34.50;53.70
7666;DHT22;3875;46.562;4.898;2023-07-28T12:08:02;34.40;52.50
7666;DHT22;3875;46.562;4.898;2023-07-28T12:10:33;34.70;54.10
7666;DHT22;3875;46.562;4.898;2023-07-28T12:13:08;34.50;52.90
7666;DHT22;3875;46.562;4.898;2023-07-28T12:15:39;34.80;53.40
7666;DHT22;3875;46.562;4.898;2023-07-28T12:18:12;34.50;53.10
7666;DHT22;3875;46.562;4.898;2023-07-28T12:20:45;34.80;52.20
7666;DHT22;3875;46.562;4.898;2023-07-28T12:23:16;34.20;52.90
7666;DHT22;3875;46.562;4.898;2023-07-28T12:25:42;34.20;53.30
7666;DHT22;3875;46.562;4.898;2023-07-28T12:28:08;34.30;53.30
7666;DHT22;3875;46.562;4.898;2023-07-28T12:30:35;34.60;52.40
7666;DHT22;3875;46.562;4.898;2023-07-28T12:33:00;34.50;52.70
7666;DHT22;3875;46.562;4.898;2023-07-28T12:35:27;34.40;52.70
7666;DHT22;3875;46.562;4.898;2023-07-28T12:37:58;34.70;52.60
7666;DHT22;3875;46.562;4.898;2023-07-28T12:40:26;34.20;51.70
7666;DHT22;3875;46.562;4.898;2023-07-28T12:42:52;33.70;52.80
7666;DHT22;3875;46.562;4.898;2023-07-28T12:45:18;33.40;53.60
7666;DHT22;3875;46.562;4.898;2023-07-28T12:47:44;33.20;53.60
7666;DHT22;3875;46.562;4.898;2023-07-28T12:50:10;32.60;54.30
7666;DHT22;3875;46.562;4.898;2023-07-28T12:52:36;32.80;54.80
7666;DHT22;3875;46.562;4.898;2023-07-28T12:55:02;33.50;54.50
7666;DHT22;3875;46.562;4.898;2023-07-28T12:57:28;34.20;53.40
7666;DHT22;3875;46.562;4.898;2023-07-28T12:59:54;34.60;52.40
7666;DHT22;3875;46.562;4.898;2023-07-28T13:02:20;34.10;52.20
7666;DHT22;3875;46.562;4.898;2023-07-28T13:04:46;34.20;53.30
7666;DHT22;3875;46.562;4.898;2023-07-28T13:07:12;34.30;53.00
7666;DHT22;3875;46.562;4.898;2023-07-28T13:09:37;34.40;52.30
7666;DHT22;3875;46.562;4.898;2023-07-28T13:12:03;34.40;53.30
7666;DHT22;3875;46.562;4.898;2023-07-28T13:14:29;34.40;53.40
7666;DHT22;3875;46.562;4.898;2023-07-28T13:16:55;34.50;52.30
7666;DHT22;3875;46.562;4.898;2023-07-28T13:19:21;34.00;53.70
7666;DHT22;3875;46.562;4.898;2023-07-28T13:21:46;33.90;54.30
7666;DHT22;3875;46.562;4.898;2023-07-28T13:24:12;33.80;53.50
7666;DHT22;3875;46.562;4.898;2023-07-28T13:26:37;33.50;53.80
7666;DHT22;3875;46.562;4.898;2023-07-28T13:29:03;33.20;54.20
7666;DHT22;3875;46.562;4.898;2023-07-28T13:31:32;33.40;54.10
7666;DHT22;3875;46.562;4.898;2023-07-28T13:33:58;33.50;53.80
7666;DHT22;3875;46.562;4.898;2023-07-28T13:36:23;33.70;53.90
7666;DHT22;3875;46.562;4.898;2023-07-28T13:38:49;34.30;53.10
7666;DHT22;3875;46.562;4.898;2023-07-28T13:41:15;34.60;52.20
7666;DHT22;3875;46.562;4.898;2023-07-28T13:43:40;34.70;50.70
7666;DHT22;3875;46.562;4.898;2023-07-28T13:46:07;35.00;51.80
7666;DHT22;3875;46.562;4.898;2023-07-28T13:48:33;34.90;49.70
7666;DHT22;3875;46.562;4.898;2023-07-28T13:51:01;34.60;51.10
7666;DHT22;3875;46.562;4.898;2023-07-28T13:53:27;34.70;52.10
7666;DHT22;3875;46.562;4.898;2023-07-28T13:55:54;34.20;51.00
7666;DHT22;3875;46.562;4.898;2023-07-28T13:58:20;34.40;51.20
7666;DHT22;3875;46.562;4.898;2023-07-28T14:00:45;34.20;51.60
7666;DHT22;3875;46.562;4.898;2023-07-28T14:03:11;34.00;51.40
7666;DHT22;3875;46.562;4.898;2023-07-28T14:05:38;33.50;51.70
7666;DHT22;3875;46.562;4.898;2023-07-28T14:08:03;33.30;53.00
7666;DHT22;3875;46.562;4.898;2023-07-28T14:10:29;32.70;51.90
7666;DHT22;3875;46.562;4.898;2023-07-28T14:12:57;33.00;53.10
7666;DHT22;3875;46.562;4.898;2023-07-28T14:15:23;33.40;52.80
7666;DHT22;3875;46.562;4.898;2023-07-28T14:17:49;33.70;53.00
7666;DHT22;3875;46.562;4.898;2023-07-28T14:20:15;33.90;52.70
7666;DHT22;3875;46.562;4.898;2023-07-28T14:22:40;34.20;51.80
7666;DHT22;3875;46.562;4.898;2023-07-28T14:25:06;34.20;52.40
7666;DHT22;3875;46.562;4.898;2023-07-28T14:27:32;33.90;51.20
7666;DHT22;3875;46.562;4.898;2023-07-28T14:29:58;33.50;51.90
7666;DHT22;3875;46.562;4.898;2023-07-28T14:32:23;33.40;52.60
7666;DHT22;3875;46.562;4.898;2023-07-28T14:34:49;33.50;52.30
7666;DHT22;3875;46.562;4.898;2023-07-28T14:37:15;33.40;51.90
7666;DHT22;3875;46.562;4.898;2023-07-28T14:39:40;33.40;53.90
7666;DHT22;3875;46.562;4.898;2023-07-28T14:42:06;33.40;55.20
7666;DHT22;3875;46.562;4.898;2023-07-28T14:44:32;33.30;55.30
7666;DHT22;3875;46.562;4.898;2023-07-28T14:46:58;33.20;56.90
7666;DHT22;3875;46.562;4.898;2023-07-28T14:49:23;32.80;57.90
7666;DHT22;3875;46.562;4.898;2023-07-28T14:51:53;32.40;59.10
7666;DHT22;3875;46.562;4.898;2023-07-28T14:54:19;32.50;59.90
7666;DHT22;3875;46.562;4.898;2023-07-28T14:56:44;32.50;59.20
7666;DHT22;3875;46.562;4.898;2023-07-28T14:59:10;32.40;58.60
7666;DHT22;3875;46.562;4.898;2023-07-28T15:01:36;32.80;58.00
7666;DHT22;3875;46.562;4.898;2023-07-28T15:04:01;32.80;58.10
7666;DHT22;3875;46.562;4.898;2023-07-28T15:06:30;32.90;59.20
7666;DHT22;3875;46.562;4.898;2023-07-28T15:08:56;32.50;60.30
7666;DHT22;3875;46.562;4.898;2023-07-28T15:11:22;32.50;61.30
7666;DHT22;3875;46.562;4.898;2023-07-28T15:13:47;32.80;60.60
7666;DHT22;3875;46.562;4.898;2023-07-28T15:16:13;32.90;59.90
7666;DHT22;3875;46.562;4.898;2023-07-28T15:18:39;32.80;59.60
7666;DHT22;3875;46.562;4.898;2023-07-28T15:21:04;32.50;60.10
7666;DHT22;3875;46.562;4.898;2023-07-28T15:23:30;32.20;60.30
7666;DHT22;3875;46.562;4.898;2023-07-28T15:25:56;32.10;60.30
7666;DHT22;3875;46.562;4.898;2023-07-28T15:28:23;32.20;60.00
7666;DHT22;3875;46.562;4.898;2023-07-28T15:30:49;32.50;60.20
7666;DHT22;3875;46.562;4.898;2023-07-28T15:33:17;32.60;60.10
7666;DHT22;3875;46.562;4.898;2023-07-28T15:35:47;32.50;60.10
7666;DHT22;3875;46.562;4.898;2023-07-28T15:38:14;32.30;60.20
7666;DHT22;3875;46.562;4.898;2023-07-28T15:40:39;32.50;60.30
7666;DHT22;3875;46.562;4.898;2023-07-28T15:43:05;32.90;59.30
7666;DHT22;3875;46.562;4.898;2023-07-28T15:45:31;33.10;59.00
7666;DHT22;3875;46.562;4.898;2023-07-28T15:47:58;33.20;58.40
7666;DHT22;3875;46.562;4.898;2023-07-28T15:50:24;33.10;58.30
7666;DHT22;3875;46.562;4.898;2023-07-28T15:52:49;33.00;57.50
7666;DHT22;3875;46.562;4.898;2023-07-28T15:55:17;33.00;57.70
7666;DHT22;3875;46.562;4.898;2023-07-28T15:57:43;33.20;57.20
7666;DHT22;3875;46.562;4.898;2023-07-28T16:00:09;33.10;56.60
7666;DHT22;3875;46.562;4.898;2023-07-28T16:02:35;33.10;56.60
7666;DHT22;3875;46.562;4.898;2023-07-28T16:05:02;33.30;57.30
7666;DHT22;3875;46.562;4.898;2023-07-28T16:07:28;33.80;56.20